sensor_id;sensor_type;location;lat;lon;timestamp;temperature;humidity
18658;DHT22;9458;50.942;5.074;2022-10-17T00:02:02;15.90;99.90
18658;DHT22;9458;50.942;5.074;2022-10-17T00:04:30;15.80;99.90
18658;DHT22;9458;50.942;5.074;2022-10-17T00:06:58;15.80;99.90
18658;DHT22;9458;50.942;5.074;2022-10-17T00:09:25;15.80;99.90
18658;DHT22;9458;50.942;5.074;2022-10-17T00:11:53;15.80;99.90
18658;DHT22;9458;50.942;5.074;2022-10-17T00:14:20;15.80;99.90
18658;DHT22;9458;50.942;5.074;2022-10-17T00:16:48;15.80;99.90
18658;DHT22;9458;50.942;5.074;2022-10-17T00:19:17;15.80;99.90
18658;DHT22;9458;50.942;5.074;2022-10-17T00:21:48;15.80;99.90
18658;DHT22;9458;50.942;5.074;2022-10-17T00:24:17;15.70;99.90
18658;DHT22;9458;50.942;5.074;2022-10-17T00:26:46;15.70;99.90
18658;DHT22;9458;50.942;5.074;2022-10-17T00:29:15;15.70;99.90
18658;DHT22;9458;50.942;5.074;2022-10-17T00:31:43;15.70;99.90
18658;DHT22;9458;50.942;5.074;2022-10-17T00:34:10;15.70;99.90
18658;DHT22;9458;50.942;5.074;2022-10-17T00:36:44;15.70;99.90
18658;DHT22;9458;50.942;5.074;2022-10-17T00:39:12;15.70;99.90
18658;DHT22;9458;50.942;5.074;2022-10-17T00:41:40;15.60;99.90
18658;DHT22;9458;50.942;5.074;2022-10-17T00:47:17;15.60;99.90
18658;DHT22;9458;50.942;5.074;2022-10-17T00:49:46;15.60;99.90
18658;DHT22;9458;50.942;5.074;2022-10-17T00:52:18;15.50;99.90
18658;DHT22;9458;50.942;5.074;2022-10-17T00:54:53;15.50;99.90
18658;DHT22;9458;50.942;5.074;2022-10-17T00:57:21;15.50;99.90
18658;DHT22;9458;50.942;5.074;2022-10-17T00:59:51;15.40;99.90
18658;DHT22;9458;50.942;5.074;2022-10-17T01:02:22;15.40;99.90
18658;DHT22;9458;50.942;5.074;2022-10-17T01:04:50;15.50;99.90
18658;DHT22;9458;50.942;5.074;2022-10-17T01:07:21;15.50;99.90
18658;DHT22;9458;50.942;5.074;2022-10-17T01:09:49;15.50;99.90
18658;DHT22;9458;50.942;5.074;2022-10-17T01:12:21;15.50;99.90
18658;DHT22;9458;50.942;5.074;2022-10-17T01:15:02;15.50;99.90
18658;DHT22;9458;50.942;5.074;2022-10-17T01:17:37;15.50;99.90
18658;DHT22;9458;50.942;5.074;2022-10-17T01:20:29;15.50;99.90
18658;DHT22;9458;50.942;5.074;2022-10-17T01:23:23;15.50;99.90
18658;DHT22;9458;50.942;5.074;2022-10-17T01:25:59;15.40;99.90
18658;DHT22;9458;50.942;5.074;2022-10-17T01:31:46;15.40;99.90
18658;DHT22;9458;50.942;5.074;2022-10-17T01:34:17;15.40;99.90
18658;DHT22;9458;50.942;5.074;2022-10-17T01:36:49;15.40;99.90
18658;DHT22;9458;50.942;5.074;2022-10-17T01:39:25;15.40;99.90
18658;DHT22;9458;50.942;5.074;2022-10-17T01:41:58;15.30;99.90
18658;DHT22;9458;50.942;5.074;2022-10-17T01:44:35;15.30;99.90
18658;DHT22;9458;50.942;5.074;2022-10-17T01:47:07;15.30;99.90
18658;DHT22;9458;50.942;5.074;2022-10-17T01:49:38;15.30;99.90
18658;DHT22;9458;50.942;5.074;2022-10-17T01:52:08;15.30;99.90
18658;DHT22;9458;50.942;5.074;2022-10-17T01:54:40;15.30;99.90
18658;DHT22;9458;50.942;5.074;2022-10-17T01:57:14;15.30;99.90
18658;DHT22;9458;50.942;5.074;2022-10-17T01:59:46;15.20;99.90
18658;DHT22;9458;50.942;5.074;2022-10-17T02:02:16;15.20;99.90
18658;DHT22;9458;50.942;5.074;2022-10-17T02:04:46;15.20;99.90
18658;DHT22;9458;50.942;5.074;2022-10-17T02:07:14;15.20;99.90
18658;DHT22;9458;50.942;5.074;2022-10-17T02:09:41;15.20;99.90
18658;DHT22;9458;50.942;5.074;2022-10-17T02:12:20;15.20;99.90
18658;DHT22;9458;50.942;5.074;2022-10-17T02:15:03;15.30;99.90
18658;DHT22;9458;50.942;5.074;2022-10-17T02:17:44;15.30;99.90
18658;DHT22;9458;50.942;5.074;2022-10-17T02:20:20;15.30;99.90
18658;DHT22;9458;50.942;5.074;2022-10-17T02:22:53;15.30;99.90
18658;DHT22;9458;50.942;5.074;2022-10-17T02:25:28;15.30;99.90
18658;DHT22;9458;50.942;5.074;2022-10-17T02:28:04;15.30;99.90
18658;DHT22;9458;50.942;5.074;2022-10-17T02:30:39;15.30;99.90
18658;DHT22;9458;50.942;5.074;2022-10-17T02:33:12;15.30;99.90
18658;DHT22;9458;50.942;5.074;2022-10-17T02:35:45;15.20;99.90
18658;DHT22;9458;50.942;5.074;2022-10-17T02:38:13;15.20;99.90
18658;DHT22;9458;50.942;5.074;2022-10-17T02:40:44;15.20;99.90
18658;DHT22;9458;50.942;5.074;2022-10-17T02:43:13;15.20;99.90
18658;DHT22;9458;50.942;5.074;2022-10-17T02:45:41;15.20;99.90
18658;DHT22;9458;50.942;5.074;2022-10-17T02:48:15;15.20;99.90
18658;DHT22;9458;50.942;5.074;2022-10-17T02:50:51;15.30;99.90
18658;DHT22;9458;50.942;5.074;2022-10-17T02:53:25;15.30;99.90
18658;DHT22;9458;50.942;5.074;2022-10-17T02:55:58;15.40;99.90
18658;DHT22;9458;50.942;5.074;2022-10-17T02:58:32;15.40;99.90
18658;DHT22;9458;50.942;5.074;2022-10-17T03:01:03;15.50;99.90
18658;DHT22;9458;50.942;5.074;2022-10-17T03:03:42;15.50;99.90
18658;DHT22;9458;50.942;5.074;2022-10-17T03:06:19;15.60;99.90
18658;DHT22;9458;50.942;5.074;2022-10-17T03:08:47;15.60;99.90
18658;DHT22;9458;50.942;5.074;2022-10-17T03:11:15;15.60;99.90
18658;DHT22;9458;50.942;5.074;2022-10-17T03:13:42;15.70;99.90
18658;DHT22;9458;50.942;5.074;2022-10-17T03:16:09;15.70;99.90
18658;DHT22;9458;50.942;5.074;2022-10-17T03:18:37;15.70;99.90
18658;DHT22;9458;50.942;5.074;2022-10-17T03:21:06;15.70;99.90
18658;DHT22;9458;50.942;5.074;2022-10-17T03:23:33;15.80;99.90
18658;DHT22;9458;50.942;5.074;2022-10-17T03:26:02;15.80;99.90
18658;DHT22;9458;50.942;5.074;2022-10-17T03:28:30;15.80;99.90
18658;DHT22;9458;50.942;5.074;2022-10-17T03:30:57;15.80;99.90
18658;DHT22;9458;50.942;5.074;2022-10-17T03:33:24;15.80;99.90
18658;DHT22;9458;50.942;5.074;2022-10-17T03:35:52;15.80;99.90
18658;DHT22;9458;50.942;5.074;2022-10-17T03:38:20;15.90;99.90
18658;DHT22;9458;50.942;5.074;2022-10-17T03:40:54;15.90;99.90
18658;DHT22;9458;50.942;5.074;2022-10-17T03:43:21;15.90;99.90
18658;DHT22;9458;50.942;5.074;2022-10-17T03:45:48;16.00;99.90
18658;DHT22;9458;50.942;5.074;2022-10-17T03:48:16;16.00;99.90
18658;DHT22;9458;50.942;5.074;2022-10-17T03:50:43;16.00;99.90
18658;DHT22;9458;50.942;5.074;2022-10-17T03:53:10;16.00;99.90
18658;DHT22;9458;50.942;5.074;2022-10-17T03:55:39;16.00;99.90
18658;DHT22;9458;50.942;5.074;2022-10-17T03:58:06;16.00;99.90
18658;DHT22;9458;50.942;5.074;2022-10-17T04:00:34;16.00;99.90
18658;DHT22;9458;50.942;5.074;2022-10-17T04:03:02;16.00;99.90
18658;DHT22;9458;50.942;5.074;2022-10-17T04:05:30;16.10;99.90
18658;DHT22;9458;50.942;5.074;2022-10-17T04:07:57;16.10;99.90
18658;DHT22;9458;50.942;5.074;2022-10-17T04:10:25;16.10;99.90
18658;DHT22;9458;50.942;5.074;2022-10-17T04:12:53;16.10;99.90
18658;DHT22;9458;50.942;5.074;2022-10-17T04:15:21;16.10;99.90
18658;DHT22;9458;50.942;5.074;2022-10-17T04:17:48;16.10;99.90
18658;DHT22;9458;50.942;5.074;2022-10-17T04:20:15;16.10;99.90
18658;DHT22;9458;50.942;5.074;2022-10-17T04:22:43;16.10;99.90
18658;DHT22;9458;50.942;5.074;2022-10-17T04:25:10;16.10;99.90
18658;DHT22;9458;50.942;5.074;2022-10-17T04:27:38;16.10;99.90
18658;DHT22;9458;50.942;5.074;2022-10-17T04:30:08;16.10;99.90
18658;DHT22;9458;50.942;5.074;2022-10-17T04:32:36;16.10;99.90
18658;DHT22;9458;50.942;5.074;2022-10-17T04:35:05;16.10;99.90
18658;DHT22;9458;50.942;5.074;2022-10-17T04:37:33;16.10;99.90
18658;DHT22;9458;50.942;5.074;2022-10-17T04:40:00;16.10;99.90
18658;DHT22;9458;50.942;5.074;2022-10-17T04:42:28;16.10;99.90
18658;DHT22;9458;50.942;5.074;2022-10-17T04:44:55;16.10;99.90
18658;DHT22;9458;50.942;5.074;2022-10-17T04:47:24;16.10;99.90
18658;DHT22;9458;50.942;5.074;2022-10-17T04:49:51;16.10;99.90
18658;DHT22;9458;50.942;5.074;2022-10-17T04:52:19;16.10;99.90
18658;DHT22;9458;50.942;5.074;2022-10-17T04:54:47;16.10;99.90
18658;DHT22;9458;50.942;5.074;2022-10-17T04:57:14;16.10;99.90
18658;DHT22;9458;50.942;5.074;2022-10-17T04:59:41;16.10;99.90
18658;DHT22;9458;50.942;5.074;2022-10-17T05:02:09;16.20;99.90
18658;DHT22;9458;50.942;5.074;2022-10-17T05:04:39;16.20;99.90
18658;DHT22;9458;50.942;5.074;2022-10-17T05:07:06;16.20;99.90
18658;DHT22;9458;50.942;5.074;2022-10-17T05:09:33;16.20;99.90
18658;DHT22;9458;50.942;5.074;2022-10-17T05:12:01;16.20;99.90
18658;DHT22;9458;50.942;5.074;2022-10-17T05:14:29;16.20;99.90
18658;DHT22;9458;50.942;5.074;2022-10-17T05:16:56;16.20;99.90
18658;DHT22;9458;50.942;5.074;2022-10-17T05:19:24;16.20;99.90
18658;DHT22;9458;50.942;5.074;2022-10-17T05:21:52;16.20;99.90
18658;DHT22;9458;50.942;5.074;2022-10-17T05:24:20;16.20;99.90
18658;DHT22;9458;50.942;5.074;2022-10-17T05:26:49;16.20;99.90
18658;DHT22;9458;50.942;5.074;2022-10-17T05:29:17;16.30;99.90
18658;DHT22;9458;50.942;5.074;2022-10-17T05:31:44;16.30;99.90
18658;DHT22;9458;50.942;5.074;2022-10-17T05:34:11;16.30;99.90
18658;DHT22;9458;50.942;5.074;2022-10-17T05:36:39;16.30;99.90
18658;DHT22;9458;50.942;5.074;2022-10-17T05:39:10;16.30;99.90
18658;DHT22;9458;50.942;5.074;2022-10-17T05:41:38;16.30;99.90
18658;DHT22;9458;50.942;5.074;2022-10-17T05:44:06;16.30;99.90
18658;DHT22;9458;50.942;5.074;2022-10-17T05:46:33;16.30;99.90
18658;DHT22;9458;50.942;5.074;2022-10-17T05:49:02;16.30;99.90
18658;DHT22;9458;50.942;5.074;2022-10-17T05:51:30;16.30;99.90
18658;DHT22;9458;50.942;5.074;2022-10-17T05:53:59;16.30;99.90
18658;DHT22;9458;50.942;5.074;2022-10-17T05:56:29;16.30;99.90
18658;DHT22;9458;50.942;5.074;2022-10-17T05:59:05;16.30;99.90
18658;DHT22;9458;50.942;5.074;2022-10-17T06:01:32;16.30;99.90
18658;DHT22;9458;50.942;5.074;2022-10-17T06:03:59;16.30;99.90
18658;DHT22;9458;50.942;5.074;2022-10-17T06:06:26;16.30;99.90
18658;DHT22;9458;50.942;5.074;2022-10-17T06:08:54;16.30;99.90
18658;DHT22;9458;50.942;5.074;2022-10-17T06:11:21;16.30;99.90
18658;DHT22;9458;50.942;5.074;2022-10-17T06:13:50;16.40;99.90
18658;DHT22;9458;50.942;5.074;2022-10-17T06:16:17;16.30;99.90
18658;DHT22;9458;50.942;5.074;2022-10-17T06:18:45;16.40;99.90
18658;DHT22;9458;50.942;5.074;2022-10-17T06:21:16;16.40;99.90
18658;DHT22;9458;50.942;5.074;2022-10-17T06:23:45;16.40;99.90
18658;DHT22;9458;50.942;5.074;2022-10-17T06:26:12;16.40;99.90
18658;DHT22;9458;50.942;5.074;2022-10-17T06:28:39;16.40;99.90
18658;DHT22;9458;50.942;5.074;2022-10-17T06:31:10;16.50;99.90
18658;DHT22;9458;50.942;5.074;2022-10-17T06:33:38;16.50;99.90
18658;DHT22;9458;50.942;5.074;2022-10-17T06:36:07;16.50;99.90
18658;DHT22;9458;50.942;5.074;2022-10-17T06:38:35;16.60;99.90
18658;DHT22;9458;50.942;5.074;2022-10-17T06:41:04;16.60;99.90
18658;DHT22;9458;50.942;5.074;2022-10-17T06:43:33;16.60;99.90
18658;DHT22;9458;50.942;5.074;2022-10-17T06:46:00;16.60;99.90
18658;DHT22;9458;50.942;5.074;2022-10-17T06:48:29;16.70;99.90
18658;DHT22;9458;50.942;5.074;2022-10-17T06:50:58;16.70;99.90
18658;DHT22;9458;50.942;5.074;2022-10-17T06:53:27;16.80;99.90
18658;DHT22;9458;50.942;5.074;2022-10-17T06:55:54;16.80;99.90
18658;DHT22;9458;50.942;5.074;2022-10-17T06:58:26;16.90;99.90
18658;DHT22;9458;50.942;5.074;2022-10-17T07:00:57;17.00;99.90
18658;DHT22;9458;50.942;5.074;2022-10-17T07:03:25;17.10;99.90
18658;DHT22;9458;50.942;5.074;2022-10-17T07:05:54;17.20;99.90
18658;DHT22;9458;50.942;5.074;2022-10-17T07:08:24;17.30;99.90
18658;DHT22;9458;50.942;5.074;2022-10-17T07:10:53;17.50;99.90
18658;DHT22;9458;50.942;5.074;2022-10-17T07:13:21;17.60;99.90
18658;DHT22;9458;50.942;5.074;2022-10-17T07:15:49;17.70;99.90
18658;DHT22;9458;50.942;5.074;2022-10-17T07:18:16;17.90;99.90
18658;DHT22;9458;50.942;5.074;2022-10-17T07:20:51;18.00;99.90
18658;DHT22;9458;50.942;5.074;2022-10-17T07:23:20;18.00;99.90
18658;DHT22;9458;50.942;5.074;2022-10-17T07:25:47;18.00;99.90
18658;DHT22;9458;50.942;5.074;2022-10-17T07:28:15;18.10;99.90
18658;DHT22;9458;50.942;5.074;2022-10-17T07:30:43;18.10;99.90
18658;DHT22;9458;50.942;5.074;2022-10-17T07:33:10;18.10;99.90
18658;DHT22;9458;50.942;5.074;2022-10-17T07:35:38;18.10;99.90
18658;DHT22;9458;50.942;5.074;2022-10-17T07:38:07;17.90;99.90
18658;DHT22;9458;50.942;5.074;2022-10-17T07:40:36;17.90;99.90
18658;DHT22;9458;50.942;5.074;2022-10-17T07:43:03;17.80;99.90
18658;DHT22;9458;50.942;5.074;2022-10-17T07:45:30;17.80;99.90
18658;DHT22;9458;50.942;5.074;2022-10-17T07:47:58;17.70;99.90
18658;DHT22;9458;50.942;5.074;2022-10-17T07:50:25;17.70;99.90
18658;DHT22;9458;50.942;5.074;2022-10-17T07:52:53;17.70;99.90
18658;DHT22;9458;50.942;5.074;2022-10-17T07:55:20;17.60;99.90
18658;DHT22;9458;50.942;5.074;2022-10-17T07:57:49;17.60;99.90
18658;DHT22;9458;50.942;5.074;2022-10-17T08:00:17;17.60;99.90
18658;DHT22;9458;50.942;5.074;2022-10-17T08:02:44;17.60;99.90
18658;DHT22;9458;50.942;5.074;2022-10-17T08:05:12;17.60;99.90
18658;DHT22;9458;50.942;5.074;2022-10-17T08:07:39;17.50;99.90
18658;DHT22;9458;50.942;5.074;2022-10-17T08:10:07;17.60;99.90
18658;DHT22;9458;50.942;5.074;2022-10-17T08:12:34;17.60;99.90
18658;DHT22;9458;50.942;5.074;2022-10-17T08:15:05;17.60;99.90
18658;DHT22;9458;50.942;5.074;2022-10-17T08:17:33;17.50;99.90
18658;DHT22;9458;50.942;5.074;2022-10-17T08:20:02;17.50;99.90
18658;DHT22;9458;50.942;5.074;2022-10-17T08:22:29;17.50;99.90
18658;DHT22;9458;50.942;5.074;2022-10-17T08:24:57;17.50;99.90
18658;DHT22;9458;50.942;5.074;2022-10-17T08:27:24;17.50;99.90
18658;DHT22;9458;50.942;5.074;2022-10-17T08:29:53;17.50;99.90
18658;DHT22;9458;50.942;5.074;2022-10-17T08:32:25;17.60;99.90
18658;DHT22;9458;50.942;5.074;2022-10-17T08:34:54;17.60;99.90
18658;DHT22;9458;50.942;5.074;2022-10-17T08:37:22;17.60;99.90
18658;DHT22;9458;50.942;5.074;2022-10-17T08:39:50;17.60;99.90
18658;DHT22;9458;50.942;5.074;2022-10-17T08:42:39;17.60;99.90
18658;DHT22;9458;50.942;5.074;2022-10-17T08:45:15;17.50;99.90
18658;DHT22;9458;50.942;5.074;2022-10-17T08:47:48;17.50;99.90
18658;DHT22;9458;50.942;5.074;2022-10-17T08:50:30;17.50;99.90
18658;DHT22;9458;50.942;5.074;2022-10-17T08:53:03;17.50;99.90
18658;DHT22;9458;50.942;5.074;2022-10-17T08:55:35;17.50;99.90
18658;DHT22;9458;50.942;5.074;2022-10-17T08:58:11;17.50;99.90
18658;DHT22;9458;50.942;5.074;2022-10-17T09:00:42;17.50;99.90
18658;DHT22;9458;50.942;5.074;2022-10-17T09:03:26;17.50;99.90
18658;DHT22;9458;50.942;5.074;2022-10-17T09:06:13;17.50;99.90
18658;DHT22;9458;50.942;5.074;2022-10-17T09:08:49;17.50;99.90
18658;DHT22;9458;50.942;5.074;2022-10-17T09:11:31;17.50;99.90
18658;DHT22;9458;50.942;5.074;2022-10-17T09:14:09;17.50;99.90
18658;DHT22;9458;50.942;5.074;2022-10-17T09:16:53;17.60;99.90
18658;DHT22;9458;50.942;5.074;2022-10-17T09:19:27;17.60;99.90
18658;DHT22;9458;50.942;5.074;2022-10-17T09:21:58;17.60;99.90
18658;DHT22;9458;50.942;5.074;2022-10-17T09:24:36;17.60;99.90
18658;DHT22;9458;50.942;5.074;2022-10-17T09:27:05;17.60;99.90
18658;DHT22;9458;50.942;5.074;2022-10-17T09:29:32;17.60;99.90
18658;DHT22;9458;50.942;5.074;2022-10-17T09:32:02;17.60;99.90
18658;DHT22;9458;50.942;5.074;2022-10-17T09:34:32;17.60;99.90
18658;DHT22;9458;50.942;5.074;2022-10-17T09:37:00;17.60;99.90
18658;DHT22;9458;50.942;5.074;2022-10-17T09:39:32;17.60;99.90
18658;DHT22;9458;50.942;5.074;2022-10-17T09:42:00;17.60;99.90
18658;DHT22;9458;50.942;5.074;2022-10-17T09:44:30;17.50;99.90
18658;DHT22;9458;50.942;5.074;2022-10-17T09:47:14;17.50;99.90
18658;DHT22;9458;50.942;5.074;2022-10-17T09:49:46;17.50;99.90
18658;DHT22;9458;50.942;5.074;2022-10-17T09:52:16;17.50;99.90
18658;DHT22;9458;50.942;5.074;2022-10-17T09:54:46;17.50;99.90
18658;DHT22;9458;50.942;5.074;2022-10-17T09:57:15;17.50;99.90
18658;DHT22;9458;50.942;5.074;2022-10-17T09:59:45;17.50;99.90
18658;DHT22;9458;50.942;5.074;2022-10-17T10:02:18;17.50;99.90
18658;DHT22;9458;50.942;5.074;2022-10-17T10:04:58;17.50;99.90
18658;DHT22;9458;50.942;5.074;2022-10-17T10:07:28;17.50;99.90
18658;DHT22;9458;50.942;5.074;2022-10-17T10:09:57;17.50;99.90
18658;DHT22;9458;50.942;5.074;2022-10-17T10:12:27;17.50;99.90
18658;DHT22;9458;50.942;5.074;2022-10-17T10:14:55;17.60;99.90
18658;DHT22;9458;50.942;5.074;2022-10-17T10:17:32;17.60;99.90
18658;DHT22;9458;50.942;5.074;2022-10-17T10:23:13;17.70;99.90
18658;DHT22;9458;50.942;5.074;2022-10-17T10:25:53;17.70;99.90
18658;DHT22;9458;50.942;5.074;2022-10-17T10:28:24;17.60;99.90
18658;DHT22;9458;50.942;5.074;2022-10-17T10:30:53;17.70;99.90
18658;DHT22;9458;50.942;5.074;2022-10-17T10:33:24;17.70;99.90
18658;DHT22;9458;50.942;5.074;2022-10-17T10:35:57;17.70;99.90
18658;DHT22;9458;50.942;5.074;2022-10-17T10:38:26;17.70;99.90
18658;DHT22;9458;50.942;5.074;2022-10-17T10:40:55;17.70;99.90
18658;DHT22;9458;50.942;5.074;2022-10-17T10:43:30;17.70;99.90
18658;DHT22;9458;50.942;5.074;2022-10-17T10:45:59;17.80;99.90
18658;DHT22;9458;50.942;5.074;2022-10-17T10:48:30;17.80;99.90
18658;DHT22;9458;50.942;5.074;2022-10-17T10:51:05;17.80;99.90
18658;DHT22;9458;50.942;5.074;2022-10-17T10:53:40;17.90;99.90
18658;DHT22;9458;50.942;5.074;2022-10-17T10:56:17;17.90;99.90
18658;DHT22;9458;50.942;5.074;2022-10-17T10:58:50;18.00;99.90
18658;DHT22;9458;50.942;5.074;2022-10-17T11:01:26;18.10;99.90
18658;DHT22;9458;50.942;5.074;2022-10-17T11:06:44;18.20;99.90
18658;DHT22;9458;50.942;5.074;2022-10-17T11:09:20;18.30;99.90
18658;DHT22;9458;50.942;5.074;2022-10-17T11:11:54;18.30;99.90
18658;DHT22;9458;50.942;5.074;2022-10-17T11:14:33;18.30;99.90
18658;DHT22;9458;50.942;5.074;2022-10-17T11:17:10;18.30;99.90
18658;DHT22;9458;50.942;5.074;2022-10-17T11:19:44;18.30;99.90
18658;DHT22;9458;50.942;5.074;2022-10-17T11:22:20;18.30;99.90
18658;DHT22;9458;50.942;5.074;2022-10-17T11:24:53;18.20;99.90
18658;DHT22;9458;50.942;5.074;2022-10-17T11:27:25;18.20;99.90
18658;DHT22;9458;50.942;5.074;2022-10-17T11:29:55;18.20;99.90
18658;DHT22;9458;50.942;5.074;2022-10-17T11:32:26;18.20;99.90
18658;DHT22;9458;50.942;5.074;2022-10-17T11:35:02;18.20;99.90
18658;DHT22;9458;50.942;5.074;2022-10-17T11:37:34;18.20;99.90
18658;DHT22;9458;50.942;5.074;2022-10-17T11:40:07;18.20;99.90
18658;DHT22;9458;50.942;5.074;2022-10-17T11:42:40;18.20;99.90
18658;DHT22;9458;50.942;5.074;2022-10-17T11:45:22;18.20;99.90
18658;DHT22;9458;50.942;5.074;2022-10-17T11:47:52;18.20;99.90
18658;DHT22;9458;50.942;5.074;2022-10-17T11:50:24;18.20;99.90
18658;DHT22;9458;50.942;5.074;2022-10-17T11:52:56;18.20;99.90
18658;DHT22;9458;50.942;5.074;2022-10-17T11:55:28;18.20;99.90
18658;DHT22;9458;50.942;5.074;2022-10-17T11:58:19;18.20;99.90
18658;DHT22;9458;50.942;5.074;2022-10-17T12:00:56;18.20;99.90
18658;DHT22;9458;50.942;5.074;2022-10-17T12:03:41;18.30;99.90
18658;DHT22;9458;50.942;5.074;2022-10-17T12:06:14;18.30;99.90
18658;DHT22;9458;50.942;5.074;2022-10-17T12:08:50;18.30;99.90
18658;DHT22;9458;50.942;5.074;2022-10-17T12:11:29;18.30;99.90
18658;DHT22;9458;50.942;5.074;2022-10-17T12:14:00;18.30;99.90
18658;DHT22;9458;50.942;5.074;2022-10-17T12:16:48;18.30;99.90
18658;DHT22;9458;50.942;5.074;2022-10-17T12:19:25;18.20;99.90
18658;DHT22;9458;50.942;5.074;2022-10-17T12:21:55;18.20;99.90
18658;DHT22;9458;50.942;5.074;2022-10-17T12:27:33;18.20;99.90
18658;DHT22;9458;50.942;5.074;2022-10-17T12:30:02;18.20;99.90
18658;DHT22;9458;50.942;5.074;2022-10-17T12:32:30;18.20;99.90
18658;DHT22;9458;50.942;5.074;2022-10-17T12:34:58;18.20;99.90
18658;DHT22;9458;50.942;5.074;2022-10-17T12:38:04;18.20;99.90
18658;DHT22;9458;50.942;5.074;2022-10-17T12:41:05;18.30;99.90
18658;DHT22;9458;50.942;5.074;2022-10-17T12:43:51;18.30;99.90
18658;DHT22;9458;50.942;5.074;2022-10-17T12:46:45;18.30;99.90
18658;DHT22;9458;50.942;5.074;2022-10-17T12:49:37;18.20;99.90
18658;DHT22;9458;50.942;5.074;2022-10-17T12:52:18;18.20;99.90
18658;DHT22;9458;50.942;5.074;2022-10-17T12:54:52;18.20;99.90
18658;DHT22;9458;50.942;5.074;2022-10-17T12:57:29;18.20;99.90
18658;DHT22;9458;50.942;5.074;2022-10-17T12:59:59;18.20;99.90
18658;DHT22;9458;50.942;5.074;2022-10-17T13:02:28;18.20;99.90
18658;DHT22;9458;50.942;5.074;2022-10-17T13:05:04;18.20;99.90
18658;DHT22;9458;50.942;5.074;2022-10-17T13:07:34;18.20;99.90
18658;DHT22;9458;50.942;5.074;2022-10-17T13:10:02;18.20;99.90
18658;DHT22;9458;50.942;5.074;2022-10-17T13:12:35;18.20;99.90
18658;DHT22;9458;50.942;5.074;2022-10-17T13:15:05;18.20;99.90
18658;DHT22;9458;50.942;5.074;2022-10-17T13:17:34;18.20;99.90
18658;DHT22;9458;50.942;5.074;2022-10-17T13:20:03;18.20;99.90
18658;DHT22;9458;50.942;5.074;2022-10-17T13:22:44;18.20;99.90
18658;DHT22;9458;50.942;5.074;2022-10-17T13:25:14;18.30;99.90
18658;DHT22;9458;50.942;5.074;2022-10-17T13:27:43;18.30;99.90
18658;DHT22;9458;50.942;5.074;2022-10-17T13:30:26;18.30;99.90
18658;DHT22;9458;50.942;5.074;2022-10-17T13:32:54;18.20;99.90
18658;DHT22;9458;50.942;5.074;2022-10-17T13:35:24;18.20;99.90
18658;DHT22;9458;50.942;5.074;2022-10-17T13:37:52;18.20;99.90
18658;DHT22;9458;50.942;5.074;2022-10-17T13:40:23;18.20;99.90
18658;DHT22;9458;50.942;5.074;2022-10-17T13:42:54;18.20;99.90
18658;DHT22;9458;50.942;5.074;2022-10-17T13:45:28;18.20;99.90
18658;DHT22;9458;50.942;5.074;2022-10-17T13:47:57;18.20;99.90
18658;DHT22;9458;50.942;5.074;2022-10-17T13:50:31;18.20;99.90
18658;DHT22;9458;50.942;5.074;2022-10-17T13:53:14;18.20;99.90
18658;DHT22;9458;50.942;5.074;2022-10-17T13:55:53;18.20;99.90
18658;DHT22;9458;50.942;5.074;2022-10-17T13:58:23;18.30;99.90
18658;DHT22;9458;50.942;5.074;2022-10-17T14:00:51;18.30;99.90
18658;DHT22;9458;50.942;5.074;2022-10-17T14:03:20;18.30;99.90
18658;DHT22;9458;50.942;5.074;2022-10-17T14:06:06;18.30;99.90
18658;DHT22;9458;50.942;5.074;2022-10-17T14:08:36;18.40;99.90
18658;DHT22;9458;50.942;5.074;2022-10-17T14:11:13;18.40;99.90
18658;DHT22;9458;50.942;5.074;2022-10-17T14:13:47;18.40;99.90
18658;DHT22;9458;50.942;5.074;2022-10-17T14:16:16;18.30;99.90
18658;DHT22;9458;50.942;5.074;2022-10-17T14:18:46;18.30;99.90
18658;DHT22;9458;50.942;5.074;2022-10-17T14:21:19;18.40;99.90
18658;DHT22;9458;50.942;5.074;2022-10-17T14:23:48;18.30;99.90
18658;DHT22;9458;50.942;5.074;2022-10-17T14:26:17;18.30;99.90
18658;DHT22;9458;50.942;5.074;2022-10-17T14:28:48;18.30;99.90
18658;DHT22;9458;50.942;5.074;2022-10-17T14:31:29;18.30;99.90
18658;DHT22;9458;50.942;5.074;2022-10-17T14:33:58;18.30;99.90
18658;DHT22;9458;50.942;5.074;2022-10-17T14:36:33;18.30;99.90
18658;DHT22;9458;50.942;5.074;2022-10-17T14:39:02;18.20;99.90
18658;DHT22;9458;50.942;5.074;2022-10-17T14:41:34;18.20;99.90
18658;DHT22;9458;50.942;5.074;2022-10-17T14:44:05;18.20;99.90
18658;DHT22;9458;50.942;5.074;2022-10-17T14:46:34;18.20;99.90
18658;DHT22;9458;50.942;5.074;2022-10-17T14:49:05;18.20;99.90
18658;DHT22;9458;50.942;5.074;2022-10-17T14:51:34;18.20;99.90
18658;DHT22;9458;50.942;5.074;2022-10-17T14:54:12;18.20;99.90
18658;DHT22;9458;50.942;5.074;2022-10-17T14:56:48;18.20;99.90
18658;DHT22;9458;50.942;5.074;2022-10-17T14:59:18;18.20;99.90
18658;DHT22;9458;50.942;5.074;2022-10-17T15:01:48;18.20;99.90
18658;DHT22;9458;50.942;5.074;2022-10-17T15:04:16;18.20;99.90
18658;DHT22;9458;50.942;5.074;2022-10-17T15:06:43;18.20;99.90
18658;DHT22;9458;50.942;5.074;2022-10-17T15:09:11;18.20;99.90
18658;DHT22;9458;50.942;5.074;2022-10-17T15:11:38;18.20;99.90
18658;DHT22;9458;50.942;5.074;2022-10-17T15:14:06;18.20;99.90
18658;DHT22;9458;50.942;5.074;2022-10-17T15:16:35;18.20;99.90
18658;DHT22;9458;50.942;5.074;2022-10-17T15:19:04;18.20;99.90
18658;DHT22;9458;50.942;5.074;2022-10-17T15:21:31;18.20;99.90
18658;DHT22;9458;50.942;5.074;2022-10-17T15:23:59;18.20;99.90
18658;DHT22;9458;50.942;5.074;2022-10-17T15:26:29;18.20;99.90
18658;DHT22;9458;50.942;5.074;2022-10-17T15:28:58;18.20;99.90
18658;DHT22;9458;50.942;5.074;2022-10-17T15:31:27;18.20;99.90
18658;DHT22;9458;50.942;5.074;2022-10-17T15:33:57;18.20;99.90
18658;DHT22;9458;50.942;5.074;2022-10-17T15:36:26;18.20;99.90
18658;DHT22;9458;50.942;5.074;2022-10-17T15:38:55;18.20;99.90
18658;DHT22;9458;50.942;5.074;2022-10-17T15:41:25;18.20;99.90
18658;DHT22;9458;50.942;5.074;2022-10-17T15:43:52;18.10;99.90
18658;DHT22;9458;50.942;5.074;2022-10-17T15:46:22;18.10;99.90
18658;DHT22;9458;50.942;5.074;2022-10-17T15:48:51;18.10;99.90
18658;DHT22;9458;50.942;5.074;2022-10-17T15:51:21;18.10;99.90
18658;DHT22;9458;50.942;5.074;2022-10-17T15:53:49;18.10;99.90
18658;DHT22;9458;50.942;5.074;2022-10-17T15:57:14;18.00;99.90
18658;DHT22;9458;50.942;5.074;2022-10-17T16:00:10;18.00;99.90
18658;DHT22;9458;50.942;5.074;2022-10-17T16:02:41;18.00;99.90
18658;DHT22;9458;50.942;5.074;2022-10-17T16:05:13;18.00;99.90
18658;DHT22;9458;50.942;5.074;2022-10-17T16:07:43;18.00;99.90
18658;DHT22;9458;50.942;5.074;2022-10-17T16:10:17;17.90;99.90
18658;DHT22;9458;50.942;5.074;2022-10-17T16:12:48;17.90;99.90
18658;DHT22;9458;50.942;5.074;2022-10-17T16:15:18;17.90;99.90
18658;DHT22;9458;50.942;5.074;2022-10-17T16:17:47;17.90;99.90
18658;DHT22;9458;50.942;5.074;2022-10-17T16:20:15;17.90;99.90
18658;DHT22;9458;50.942;5.074;2022-10-17T16:22:46;17.90;99.90
18658;DHT22;9458;50.942;5.074;2022-10-17T16:25:18;17.90;99.90
18658;DHT22;9458;50.942;5.074;2022-10-17T16:27:46;17.90;99.90